createdAt,value
2023-04-28T00:00:53.990Z,15.76
2023-04-28T00:03:21.813Z,15.38
2023-04-28T00:05:49.701Z,16.29
2023-04-28T00:08:18.971Z,16.13
2023-04-28T00:10:46.863Z,15.40
2023-04-28T00:13:14.516Z,16.14
2023-04-28T00:15:42.161Z,15.36
2023-04-28T00:18:09.880Z,15.73
2023-04-28T00:20:37.536Z,15.10
2023-04-28T00:23:05.351Z,15.13
2023-04-28T00:25:34.434Z,15.34
2023-04-28T00:28:02.945Z,15.99
2023-04-28T00:30:31.237Z,15.61
2023-04-28T00:32:58.974Z,16.12
2023-04-28T00:35:26.687Z,15.33
2023-04-28T00:37:54.342Z,14.74
2023-04-28T00:40:22.186Z,14.97
2023-04-28T00:42:51.260Z,15.42
2023-04-28T00:45:18.905Z,14.86
2023-04-28T00:48:17.503Z,15.25
2023-04-28T00:50:45.994Z,15.14
2023-04-28T00:53:14.157Z,15.44
2023-04-28T00:55:41.901Z,15.18
2023-04-28T00:58:11.513Z,15.47
2023-04-28T01:00:39.423Z,15.49
2023-04-28T01:03:08.044Z,14.71
2023-04-28T01:05:36.414Z,15.68
2023-04-28T01:08:04.777Z,15.16
2023-04-28T01:10:32.924Z,15.80
2023-04-28T01:13:00.585Z,16.14
2023-04-28T01:15:29.968Z,16.59
2023-04-28T01:17:57.642Z,16.32
2023-04-28T01:20:25.428Z,15.44
2023-04-28T01:22:55.175Z,15.64
2023-04-28T01:25:24.174Z,15.94
2023-04-28T01:27:52.799Z,16.69
2023-04-28T01:30:21.053Z,16.60
2023-04-28T01:32:48.820Z,16.21
2023-04-28T01:35:16.720Z,16.35
2023-04-28T01:37:44.344Z,16.08
2023-04-28T01:40:13.156Z,16.42
2023-04-28T01:42:42.162Z,16.86
2023-04-28T01:45:11.131Z,16.98
2023-04-28T01:47:38.949Z,16.75
2023-04-28T01:55:52.946Z,15.11
2023-04-28T01:58:22.025Z,16.84
2023-04-28T02:00:49.710Z,15.91
2023-04-28T02:03:17.825Z,16.78
2023-04-28T02:05:45.786Z,15.98
2023-04-28T02:08:13.445Z,16.26
2023-04-28T02:10:41.534Z,16.55
2023-04-28T02:13:09.201Z,16.54
2023-04-28T02:15:42.284Z,17.09
2023-04-28T02:18:10.070Z,16.86
2023-04-28T02:20:37.807Z,17.36
2023-04-28T02:23:05.510Z,17.04
2023-04-28T02:25:33.181Z,16.84
2023-04-28T02:28:00.856Z,16.27
2023-04-28T02:30:28.510Z,16.50
2023-04-28T02:32:57.677Z,16.50
2023-04-28T02:35:25.413Z,17.48
2023-04-28T02:37:53.612Z,15.63
2023-04-28T02:40:21.424Z,16.29
2023-04-28T02:42:49.101Z,16.45
2023-04-28T02:45:16.810Z,16.88
2023-04-28T02:47:44.521Z,15.83
2023-04-28T02:50:13.657Z,16.95
2023-04-28T02:52:41.313Z,16.16
2023-04-28T02:55:09.788Z,16.74
2023-04-28T02:57:37.481Z,16.58
2023-04-28T03:00:06.543Z,16.91
2023-04-28T03:02:34.391Z,16.91
2023-04-28T03:05:02.326Z,16.73
2023-04-28T03:07:31.494Z,16.74
2023-04-28T03:09:59.162Z,15.98
2023-04-28T03:12:26.858Z,17.32
2023-04-28T03:14:54.622Z,16.13
2023-04-28T03:17:22.325Z,17.18
2023-04-28T03:19:50.024Z,17.69
2023-04-28T03:22:17.697Z,17.42
2023-04-28T03:24:47.023Z,17.50
2023-04-28T03:27:14.706Z,17.34
2023-04-28T03:29:42.383Z,17.00
2023-04-28T03:32:10.423Z,17.84
2023-04-28T03:34:38.356Z,18.01
2023-04-28T03:37:06.387Z,18.10
2023-04-28T03:39:34.089Z,17.46
2023-04-28T03:42:03.265Z,17.04
2023-04-28T03:44:31.418Z,16.73
2023-04-28T03:46:59.162Z,16.79
2023-04-28T03:49:26.971Z,16.96
2023-04-28T03:51:54.657Z,16.14
2023-04-28T03:54:22.367Z,16.82
2023-04-28T03:56:50.133Z,17.44
2023-04-28T03:59:19.221Z,16.05
2023-04-28T04:01:46.919Z,16.74
2023-04-28T04:04:14.956Z,17.06
2023-04-28T04:06:42.889Z,16.00
2023-04-28T04:09:10.571Z,16.81
2023-04-28T04:11:38.315Z,16.46
2023-04-28T04:14:06.293Z,16.55
2023-04-28T04:16:35.374Z,16.09
2023-04-28T04:19:03.087Z,16.40
2023-04-28T04:21:31.782Z,16.51
2023-04-28T04:23:59.509Z,16.06
2023-04-28T04:26:27.191Z,16.50
2023-04-28T04:28:54.848Z,17.18
2023-04-28T04:31:22.844Z,17.00
2023-04-28T04:33:52.024Z,16.78
2023-04-28T04:36:19.778Z,16.84
2023-04-28T04:38:47.436Z,16.54
2023-04-28T04:41:15.217Z,16.17
2023-04-28T04:43:42.899Z,16.57
2023-04-28T04:46:10.735Z,17.15
2023-04-28T04:48:38.495Z,17.08
2023-04-28T04:51:07.584Z,17.19
2023-04-28T04:53:35.273Z,16.01
2023-04-28T04:56:03.058Z,16.44
2023-04-28T04:58:30.833Z,16.30
2023-04-28T05:00:58.536Z,16.60
2023-04-28T05:03:26.294Z,16.68
2023-04-28T05:05:54.186Z,16.84
2023-04-28T05:08:23.277Z,16.83
2023-04-28T05:10:50.974Z,16.83
2023-04-28T05:13:18.767Z,16.97
2023-04-28T05:15:46.471Z,17.56
2023-04-28T05:18:14.317Z,16.97
2023-04-28T05:20:42.014Z,18.12
2023-04-28T05:23:10.612Z,17.87
2023-04-28T05:25:39.737Z,17.65
2023-04-28T05:28:09.414Z,17.65
2023-04-28T05:30:37.142Z,18.06
2023-04-28T05:33:04.919Z,16.23
2023-04-28T05:35:32.686Z,17.05
2023-04-28T05:38:00.405Z,17.60
2023-04-28T05:40:28.946Z,17.17
2023-04-28T05:42:58.005Z,17.68
2023-04-28T05:45:26.136Z,17.33
2023-04-28T05:47:53.877Z,18.04
2023-04-28T05:50:21.802Z,17.76
2023-04-28T05:52:49.479Z,17.75
2023-04-28T05:55:17.448Z,17.08
2023-04-28T05:57:52.531Z,17.31
2023-04-28T06:00:22.884Z,17.26
2023-04-28T06:02:51.059Z,16.69
2023-04-28T06:05:19.298Z,17.47
2023-04-28T06:07:49.688Z,16.91
2023-04-28T06:10:17.994Z,17.48
2023-04-28T06:12:45.629Z,17.44
2023-04-28T06:15:13.342Z,17.97
2023-04-28T06:17:42.531Z,18.89
2023-04-28T06:20:13.750Z,17.99
2023-04-28T06:22:41.612Z,17.82
2023-04-28T06:25:10.282Z,18.05
2023-04-28T06:27:38.021Z,17.76
2023-04-28T06:30:06.929Z,18.55
2023-04-28T06:32:34.625Z,18.37
2023-04-28T06:35:03.693Z,18.75
2023-04-28T06:37:31.491Z,18.45
2023-04-28T06:39:59.116Z,18.60
2023-04-28T06:42:27.171Z,18.39
2023-04-28T06:44:54.917Z,18.21
2023-04-28T06:47:22.837Z,18.63
2023-04-28T06:49:50.938Z,18.38
2023-04-28T06:52:27.042Z,18.49
2023-04-28T06:54:57.740Z,19.12
2023-04-28T06:57:25.449Z,18.95
2023-04-28T06:59:53.460Z,19.42
2023-04-28T07:02:21.540Z,19.60
2023-04-28T07:04:49.390Z,19.09
2023-04-28T07:07:17.285Z,18.99
2023-04-28T07:09:46.441Z,19.73
2023-04-28T07:12:14.331Z,20.08
2023-04-28T07:14:41.984Z,20.04
2023-04-28T07:17:09.729Z,20.03
2023-04-28T07:19:37.411Z,19.39
2023-04-28T07:22:05.070Z,18.32
2023-04-28T07:24:32.782Z,19.39
2023-04-28T07:27:03.887Z,19.14
2023-04-28T07:29:34.203Z,19.55
2023-04-28T07:32:04.161Z,19.20
2023-04-28T07:34:32.921Z,19.19
2023-04-28T07:37:00.687Z,19.70
2023-04-28T07:39:28.332Z,20.43
2023-04-28T07:41:58.049Z,19.94
2023-04-28T07:44:27.109Z,19.96
2023-04-28T07:46:54.916Z,20.84
2023-04-28T07:49:22.637Z,20.46
2023-04-28T07:51:52.223Z,20.88
2023-04-28T07:54:20.086Z,19.84
2023-04-28T07:56:48.060Z,20.48
2023-04-28T07:59:15.875Z,20.15
2023-04-28T08:01:44.963Z,20.69
2023-04-28T08:04:12.919Z,20.92
2023-04-28T08:06:41.517Z,19.94
2023-04-28T08:09:09.247Z,19.80
2023-04-28T08:11:36.963Z,19.47
2023-04-28T08:14:04.718Z,19.14
2023-04-28T08:16:34.426Z,20.03
2023-04-28T08:19:03.646Z,19.82
2023-04-28T08:21:32.813Z,18.70
2023-04-28T08:24:00.602Z,19.45
2023-04-28T08:26:28.432Z,18.24
2023-04-28T08:28:56.097Z,19.27
2023-04-28T08:31:23.901Z,20.05
2023-04-28T08:33:51.781Z,19.66
2023-04-28T08:36:21.246Z,20.62
2023-04-28T08:38:49.240Z,20.95
2023-04-28T08:41:17.846Z,20.62
2023-04-28T08:43:45.722Z,21.30
2023-04-28T08:46:15.946Z,21.79
2023-04-28T08:48:45.756Z,21.11
2023-04-28T08:51:16.468Z,21.49
2023-04-28T08:56:23.427Z,21.08
2023-04-28T08:58:51.788Z,19.42
2023-04-28T09:01:19.440Z,21.71
2023-04-28T09:03:48.136Z,21.72
2023-04-28T09:06:15.967Z,21.17
2023-04-28T09:08:43.892Z,21.85
2023-04-28T09:11:13.757Z,22.33
2023-04-28T09:13:42.293Z,22.61
2023-04-28T09:16:09.995Z,22.16
2023-04-28T09:18:37.748Z,22.47
2023-04-28T09:21:06.989Z,22.57
2023-04-28T09:23:37.190Z,22.36
2023-04-28T09:26:06.487Z,23.88
2023-04-28T09:28:36.655Z,23.94
2023-04-28T09:31:05.641Z,23.38
2023-04-28T09:33:33.775Z,21.29
2023-04-28T09:36:01.542Z,22.70
2023-04-28T09:41:14.959Z,22.31
2023-04-28T09:43:44.021Z,22.31
2023-04-28T09:46:11.745Z,23.32
2023-04-28T09:48:40.112Z,23.55
2023-04-28T09:51:11.594Z,23.07
2023-04-28T09:53:40.720Z,23.42
2023-04-28T09:56:08.839Z,23.17
2023-04-28T09:58:41.293Z,23.38
2023-04-28T10:01:14.518Z,23.75
2023-04-28T10:03:43.237Z,23.57
2023-04-28T10:06:11.579Z,24.62
2023-04-28T10:08:40.373Z,24.05
2023-04-28T10:11:08.492Z,25.34
2023-04-28T10:13:36.747Z,24.43
2023-04-28T10:16:05.699Z,23.58
2023-04-28T10:18:36.483Z,24.01
2023-04-28T10:21:05.744Z,24.34
2023-04-28T10:23:54.352Z,25.31
2023-04-28T10:26:23.825Z,24.56
2023-04-28T10:28:52.992Z,24.89
2023-04-28T10:31:22.787Z,25.17
2023-04-28T10:33:52.256Z,25.43
2023-04-28T10:36:50.939Z,25.72
2023-04-28T10:39:21.378Z,26.15
2023-04-28T10:41:50.010Z,26.46
2023-04-28T10:44:45.171Z,25.17
2023-04-28T10:47:15.790Z,25.61
2023-04-28T10:50:11.356Z,26.68
2023-04-28T10:52:52.381Z,25.15
2023-04-28T10:55:36.555Z,25.41
2023-04-28T10:58:33.660Z,23.31
2023-04-28T11:01:25.749Z,25.90
2023-04-28T11:04:00.951Z,25.41
2023-04-28T11:06:32.493Z,25.77
2023-04-28T11:09:02.320Z,25.90
2023-04-28T11:11:30.574Z,25.39
2023-04-28T11:14:31.601Z,25.05
2023-04-28T11:17:02.015Z,25.53
2023-04-28T11:19:33.172Z,25.92
2023-04-28T11:22:04.374Z,24.31
2023-04-28T11:24:32.711Z,26.26
2023-04-28T11:27:01.354Z,25.74
2023-04-28T11:29:49.189Z,26.51
2023-04-28T11:32:16.956Z,26.19
2023-04-28T11:34:52.768Z,26.23
2023-04-28T11:37:22.954Z,27.13
2023-04-28T11:39:51.165Z,26.40
2023-04-28T11:42:19.158Z,26.19
2023-04-28T11:44:51.829Z,26.44
2023-04-28T11:50:13.010Z,26.12
2023-04-28T11:52:53.007Z,26.61
2023-04-28T11:55:21.760Z,25.94
2023-04-28T11:57:49.581Z,25.70
2023-04-28T12:03:08.890Z,25.53
2023-04-28T12:05:39.056Z,24.14
2023-04-28T12:08:08.420Z,24.97
2023-04-28T12:10:36.140Z,25.41
2023-04-28T12:13:16.718Z,25.70
2023-04-28T12:15:44.466Z,25.67
2023-04-28T12:18:12.652Z,24.62
2023-04-28T12:20:41.164Z,25.00
2023-04-28T12:23:10.590Z,25.20
2023-04-28T12:25:44.773Z,24.69
2023-04-28T12:28:12.669Z,25.33
2023-04-28T12:30:42.262Z,24.56
2023-04-28T12:33:23.568Z,25.25
2023-04-28T12:35:51.409Z,24.98
2023-04-28T12:38:20.666Z,24.44
2023-04-28T12:40:48.429Z,24.75
2023-04-28T12:43:16.280Z,24.55
2023-04-28T12:45:43.990Z,25.16
2023-04-28T12:48:11.852Z,24.95
2023-04-28T12:50:39.766Z,24.04
2023-04-28T12:53:07.505Z,23.91
2023-04-28T12:55:36.617Z,25.12
2023-04-28T12:58:04.730Z,24.91
2023-04-28T13:00:32.559Z,23.82
2023-04-28T13:03:03.162Z,24.08
2023-04-28T13:05:31.103Z,22.05
2023-04-28T13:07:59.519Z,22.58
2023-04-28T13:10:27.356Z,21.82
2023-04-28T13:12:56.435Z,22.43
2023-04-28T13:15:24.277Z,21.17
2023-04-28T13:17:52.016Z,21.93
2023-04-28T13:20:19.848Z,21.83
2023-04-28T13:22:56.495Z,22.57
2023-04-28T13:25:24.208Z,22.39
2023-04-28T13:27:52.221Z,23.18
2023-04-28T13:30:22.076Z,23.78
2023-04-28T13:32:49.963Z,24.89
2023-04-28T13:35:17.747Z,24.71
2023-04-28T13:37:46.119Z,25.49
2023-04-28T13:40:14.177Z,23.17
2023-04-28T13:42:41.936Z,24.07
2023-04-28T13:45:10.451Z,23.69
2023-04-28T13:47:39.916Z,21.83
2023-04-28T13:50:08.709Z,23.03
2023-04-28T13:52:36.554Z,24.15
2023-04-28T13:55:04.652Z,22.82
2023-04-28T13:57:32.540Z,21.52
2023-04-28T14:00:22.281Z,23.04
2023-04-28T14:02:51.876Z,23.81
2023-04-28T14:05:19.812Z,21.52
2023-04-28T14:07:47.520Z,21.67
2023-04-28T14:10:15.214Z,23.45
2023-04-28T14:12:43.392Z,23.89
2023-04-28T14:15:11.484Z,23.75
2023-04-28T14:17:39.196Z,24.17
2023-04-28T14:20:11.672Z,26.31
2023-04-28T14:22:48.620Z,25.50
2023-04-28T14:25:16.405Z,23.76
2023-04-28T14:27:44.084Z,26.13
2023-04-28T14:30:12.396Z,24.83
2023-04-28T14:32:40.258Z,24.88
2023-04-28T14:35:10.687Z,23.85
2023-04-28T14:38:01.572Z,23.67
2023-04-28T14:40:29.197Z,24.00
2023-04-28T14:42:56.927Z,23.43
2023-04-28T14:45:25.022Z,23.12
2023-04-28T14:47:53.410Z,23.90
2023-04-28T14:50:22.683Z,22.23
2023-04-28T14:52:50.817Z,22.62
2023-04-28T14:55:18.506Z,23.04
2023-04-28T14:57:47.074Z,22.71
2023-04-28T15:00:15.999Z,24.64
2023-04-28T15:02:43.881Z,21.30
2023-04-28T15:05:12.673Z,23.02
2023-04-28T15:07:42.084Z,24.90
2023-04-28T15:10:10.230Z,23.78
2023-04-28T15:12:37.908Z,23.20
2023-04-28T15:15:06.102Z,23.65
2023-04-28T15:17:34.265Z,23.13
2023-04-28T15:20:02.282Z,23.10
2023-04-28T15:22:30.282Z,23.44
2023-04-28T15:24:59.342Z,22.44
2023-04-28T15:27:27.196Z,21.97
2023-04-28T15:29:54.950Z,23.02
2023-04-28T15:32:23.543Z,21.58
2023-04-28T15:34:51.910Z,22.02
2023-04-28T15:37:43.111Z,20.85
2023-04-28T15:40:14.610Z,21.36
2023-04-28T15:42:44.999Z,22.57
2023-04-28T15:45:13.410Z,21.13
2023-04-28T15:47:42.564Z,21.01
2023-04-28T15:50:11.234Z,20.73
2023-04-28T15:55:45.640Z,20.69
2023-04-28T15:58:13.570Z,20.29
2023-04-28T16:00:42.247Z,19.34
2023-04-28T16:03:10.198Z,19.42
2023-04-28T16:05:38.809Z,20.73
2023-04-28T16:08:06.598Z,19.22
2023-04-28T16:10:34.374Z,19.75
2023-04-28T16:13:05.263Z,19.33
2023-04-28T16:15:34.178Z,19.55
2023-04-28T16:18:02.097Z,19.44
2023-04-28T16:20:30.277Z,20.73
2023-04-28T16:22:57.964Z,20.11
2023-04-28T16:25:25.793Z,20.95
2023-04-28T16:27:53.553Z,20.54
2023-04-28T16:30:22.929Z,19.66
2023-04-28T16:32:50.641Z,20.65
2023-04-28T16:35:18.377Z,20.88
2023-04-28T16:37:46.180Z,19.89
2023-04-28T16:40:14.313Z,20.06
2023-04-28T16:42:43.541Z,19.92
2023-04-28T16:45:12.073Z,19.79
2023-04-28T16:47:43.278Z,20.19
2023-04-28T16:50:11.932Z,19.05
2023-04-28T16:52:39.762Z,21.13
2023-04-28T16:55:08.916Z,19.63
2023-04-28T16:57:36.653Z,20.94
2023-04-28T17:00:06.126Z,20.09
2023-04-28T17:02:34.460Z,19.46
2023-04-28T17:05:18.179Z,19.46
2023-04-28T17:07:45.906Z,19.20
2023-04-28T17:10:13.796Z,19.00
2023-04-28T17:12:42.774Z,19.02
2023-04-28T17:15:15.109Z,19.27
2023-04-28T17:17:42.843Z,19.49
2023-04-28T17:20:12.029Z,19.75
2023-04-28T17:22:41.190Z,18.94
2023-04-28T17:25:10.012Z,19.99
2023-04-28T17:27:37.840Z,19.96
2023-04-28T17:30:06.420Z,19.03
2023-04-28T17:32:34.480Z,19.03
2023-04-28T17:35:02.169Z,19.46
2023-04-28T17:37:31.407Z,19.71
2023-04-28T17:40:00.777Z,20.25
2023-04-28T17:42:30.210Z,19.87
2023-04-28T17:44:57.881Z,18.84
2023-04-28T17:47:25.679Z,19.07
2023-04-28T17:49:53.524Z,19.49
2023-04-28T17:52:21.186Z,19.16
2023-04-28T17:54:49.214Z,20.05
2023-04-28T17:57:18.906Z,19.39
2023-04-28T17:59:50.969Z,19.46
2023-04-28T18:02:19.754Z,19.64
2023-04-28T18:04:47.694Z,19.10
2023-04-28T18:07:15.468Z,18.68
2023-04-28T18:09:43.231Z,18.99
2023-04-28T18:12:10.931Z,19.24
2023-04-28T18:14:41.132Z,19.13
2023-04-28T18:17:08.961Z,19.22
2023-04-28T18:19:37.031Z,20.32
2023-04-28T18:22:05.310Z,19.19
2023-04-28T18:24:33.400Z,19.81
2023-04-28T18:27:02.246Z,18.88
2023-04-28T18:29:30.187Z,19.25
2023-04-28T18:31:59.337Z,19.28
2023-04-28T18:34:27.435Z,18.91
2023-04-28T18:36:55.251Z,19.88
2023-04-28T18:39:23.097Z,18.65
2023-04-28T18:41:51.508Z,18.70
2023-04-28T18:44:20.173Z,19.34
2023-04-28T18:46:47.921Z,20.21
2023-04-28T18:49:17.468Z,19.64
2023-04-28T18:51:45.280Z,19.49
2023-04-28T18:54:15.809Z,19.71
2023-04-28T18:56:44.371Z,18.91
2023-04-28T18:59:12.291Z,18.64
2023-04-28T19:01:40.077Z,19.08
2023-04-28T19:04:08.343Z,18.20
2023-04-28T19:06:37.666Z,18.72
2023-04-28T19:09:05.315Z,18.22
2023-04-28T19:11:33.032Z,19.67
2023-04-28T19:14:01.324Z,19.08
2023-04-28T19:16:29.022Z,19.14
2023-04-28T19:18:56.718Z,18.55
2023-04-28T19:21:24.520Z,18.66
2023-04-28T19:23:54.291Z,20.32
2023-04-28T19:26:22.003Z,19.10
2023-04-28T19:28:49.708Z,18.56
2023-04-28T19:31:17.481Z,18.25
2023-04-28T19:33:45.176Z,18.40
2023-04-28T19:36:12.843Z,18.88
2023-04-28T19:38:40.686Z,19.68
2023-04-28T19:41:09.950Z,18.59
2023-04-28T19:43:37.809Z,18.76
2023-04-28T19:46:05.718Z,19.31
2023-04-28T19:48:33.414Z,19.14
2023-04-28T19:51:01.107Z,18.75
2023-04-28T19:53:28.893Z,19.23
2023-04-28T19:55:57.641Z,19.21
2023-04-28T19:58:26.769Z,18.98
2023-04-28T20:00:54.690Z,18.18
2023-04-28T20:03:22.608Z,18.25
2023-04-28T20:05:50.347Z,19.03
2023-04-28T20:08:19.521Z,18.22
2023-04-28T20:10:47.835Z,18.06
2023-04-28T20:13:16.110Z,19.96
2023-04-28T20:15:45.272Z,19.59
2023-04-28T20:18:12.954Z,18.40
2023-04-28T20:20:40.924Z,19.00
2023-04-28T20:23:08.587Z,18.37
2023-04-28T20:25:37.480Z,19.53
2023-04-28T20:28:05.396Z,18.25
2023-04-28T20:30:33.172Z,18.76
2023-04-28T20:33:02.231Z,20.05
2023-04-28T20:35:32.143Z,19.07
2023-04-28T20:37:59.837Z,18.67
2023-04-28T20:40:27.848Z,19.06
2023-04-28T20:42:56.732Z,19.32
2023-04-28T20:45:24.899Z,18.92
2023-04-28T20:47:53.944Z,17.99
2023-04-28T20:50:24.265Z,18.72
2023-04-28T20:52:51.945Z,18.25
2023-04-28T20:55:19.703Z,17.93
2023-04-28T20:57:47.451Z,18.84
2023-04-28T21:00:16.055Z,17.71
2023-04-28T21:02:43.976Z,18.54
2023-04-28T21:05:11.915Z,18.21
2023-04-28T21:07:41.025Z,18.95
2023-04-28T21:10:10.544Z,18.84
2023-04-28T21:12:38.329Z,19.10
2023-04-28T21:15:07.172Z,18.51
2023-04-28T21:17:34.887Z,17.59
2023-04-28T21:20:03.599Z,18.03
2023-04-28T21:22:31.417Z,19.09
2023-04-28T21:25:00.671Z,18.40
2023-04-28T21:27:28.411Z,17.89
2023-04-28T21:29:56.204Z,18.65
2023-04-28T21:32:23.980Z,17.53
2023-04-28T21:34:51.681Z,17.86
2023-04-28T21:37:53.228Z,18.52
2023-04-28T21:40:22.672Z,18.02
2023-04-28T21:42:51.015Z,17.94
2023-04-28T21:45:18.882Z,18.67
2023-04-28T21:47:46.697Z,17.80
2023-04-28T21:50:14.454Z,17.82
2023-04-28T21:52:42.238Z,18.22
2023-04-28T21:55:10.497Z,18.08
2023-04-28T21:57:39.557Z,17.83
2023-04-28T22:00:10.776Z,17.95
2023-04-28T22:02:39.058Z,17.33
2023-04-28T22:05:06.946Z,18.40
2023-04-28T22:07:34.768Z,17.66
2023-04-28T22:10:02.537Z,18.11
2023-04-28T22:12:30.218Z,19.25
2023-04-28T22:15:00.195Z,18.23
2023-04-28T22:17:27.952Z,18.60
2023-04-28T22:19:55.645Z,18.26
2023-04-28T22:22:23.347Z,19.34
2023-04-28T22:24:52.316Z,18.59
2023-04-28T22:27:20.057Z,18.62
2023-04-28T22:29:47.768Z,17.84
2023-04-28T22:32:17.007Z,18.23
2023-04-28T22:34:44.676Z,18.62
2023-04-28T22:37:12.485Z,18.03
2023-04-28T22:39:40.136Z,18.28
2023-04-28T22:42:08.441Z,18.55
2023-04-28T22:44:36.575Z,18.54
2023-04-28T22:47:05.013Z,17.91
2023-04-28T22:49:34.019Z,16.93
2023-04-28T22:52:01.709Z,17.93
2023-04-28T22:54:29.385Z,16.78
2023-04-28T22:56:57.059Z,17.24
2023-04-28T22:59:24.747Z,18.31
2023-04-28T23:01:53.352Z,17.06
2023-04-28T23:04:21.849Z,17.47
2023-04-28T23:06:51.174Z,17.09
2023-04-28T23:09:19.646Z,17.72
2023-04-28T23:11:47.326Z,17.14
2023-04-28T23:14:15.007Z,17.70
2023-04-28T23:16:43.150Z,16.48
2023-04-28T23:19:10.838Z,17.55
2023-04-28T23:21:38.574Z,17.13
2023-04-28T23:24:08.439Z,16.67
2023-04-28T23:26:36.798Z,16.90
2023-04-28T23:29:04.507Z,16.92
2023-04-28T23:31:32.391Z,17.27
2023-04-28T23:34:00.700Z,17.87
2023-04-28T23:36:28.348Z,16.82
2023-04-28T23:38:56.509Z,17.15
2023-04-28T23:41:26.101Z,17.72
2023-04-28T23:43:53.796Z,17.28
2023-04-28T23:46:21.542Z,16.35
2023-04-28T23:48:49.246Z,17.25
2023-04-28T23:51:16.903Z,17.30
2023-04-28T23:53:44.811Z,16.42
2023-04-28T23:56:29.089Z,16.50
2023-04-28T23:58:57.112Z,15.93
